Latest Coastal Weather Observations for Strahan

IDT60701

Issued at 3:22 pm EDT Tuesday 28 March 2017 (issued every 10 minutes, with the page automatically refreshed every 10 minutes)

About coastal observations | Map of coastal stations | Coastal observations for TAS | Marine services | Other Formats
Station Details ID: 097072 Name: STRAHAN AERODROME Lat: -42.16 Lon: 145.29 Height: 21.0 m
Data from the previous 72 hours. | See also: Recent months at Strahan
Date/Time
EDT
Temp
°C
Wind Pressure Rain since
9am
mm
Weather Cloud Vis
km
Sea
Height
m
Swell
Dir  Spd
kts
Gust
kts
hPa Trend Height
m
Period
s
Dir
28/03:12pm 17.4 NW 18 28 1007.6 - 0.4 - Cloudy 10 - - - -
28/03:00pm 17.9 NW 19 28 1007.7 - 0.4 - Cloudy 10 - - - -
28/02:34pm 16.3 NNW 17 28 1007.9 - 0.4 - Partly cloudy 9 - - - -
28/02:30pm 16.1 NNW 17 23 1007.9 - 0.4 - Partly cloudy 10 - - - -
28/02:18pm 15.5 NNW 18 24 1008.0 - 0.4 - Partly cloudy 9 - - - -
28/02:17pm 15.4 NNW 18 25 1008.1 - 0.4 - Partly cloudy 8 - - - -
28/02:00pm 15.3 WNW 20 26 1008.2 - 0.4 - Partly cloudy 5 - - - -
28/01:50pm 15.5 WNW 19 25 1008.3 - 0.2 - Partly cloudy 5 - - - -
28/01:49pm 15.5 NW 19 25 1008.2 - 0.2 - Partly cloudy 6 - - - -
28/01:30pm 17.6 NW 20 29 1008.3 - 0.2 - Partly cloudy 10 - - - -
28/01:00pm 17.1 NNW 20 27 1008.4 - 0.2 - Cloudy 10 - - - -
28/12:30pm 17.0 NNW 17 24 1008.7 - 0.2 - Partly cloudy 10 - - - -
28/12:12pm 16.9 NW 19 33 1008.8 - 0.2 - Partly cloudy 10 - - - -
28/12:00pm 17.9 NNW 19 25 1008.8 - 0.2 - Cloudy 10 - - - -
28/11:41am 16.3 NNW 19 33 1009.0 - 0.2 - Partly cloudy 10 - - - -
28/11:30am 15.9 NNW 18 25 1009.0 - 0.2 - Cloudy 10 - - - -
28/11:20am 15.5 NNW 17 26 1009.0 - 0.2 - Partly cloudy 10 - - - -
28/11:15am 15.5 NNW 15 21 1009.0 - 0.2 - Partly cloudy 10 - - - -
28/11:00am 14.7 NW 20 31 1009.1 - 0.2 - Partly cloudy 5 - - - -
28/10:57am 14.6 NW 21 31 1009.3 - 0.2 - Partly cloudy 5 - - - -
28/10:48am 14.6 NW 20 27 1009.2 - 0.2 - Partly cloudy 5 - - - -
28/10:30am 15.8 NW 18 24 1009.0 - 0.2 - Partly cloudy 10 - - - -
28/10:04am 14.7 NW 20 31 1009.1 - 0.2 - Partly cloudy 10 - - - -
28/10:01am 14.5 NW 21 31 1009.1 - 0.2 - Partly cloudy 10 - - - -
28/10:00am 14.4 NW 22 31 1009.0 - 0.2 - Partly cloudy 10 - - - -
28/09:48am 14.5 NW 22 32 1009.0 - 0.2 - Partly cloudy 5 - - - -
28/09:46am 14.8 NW 21 30 1009.1 - 0.2 - Partly cloudy 5 - - - -
28/09:36am 15.6 NW 17 27 1008.8 - 0.0 - Partly cloudy 10 - - - -
28/09:30am 15.2 NW 19 27 1008.8 - 0.0 - Partly cloudy 10 - - - -
28/09:16am 14.6 NW 20 30 1008.8 - 0.0 - Partly cloudy 8 - - - -
28/09:00am 14.7 NW 19 28 1008.8 - 20.0 - Cloudy 8 - - - -
28/08:47am 14.7 NW 21 31 1008.8 - 20.0 - Partly cloudy 7 - - - -
28/08:30am 14.5 NW 15 20 1008.4 - 20.0 - Partly cloudy 9 - - - -
28/08:21am 14.0 NW 18 26 1008.3 - 20.0 - Partly cloudy 10 - - - -
28/08:00am 14.2 NW 17 28 1008.2 - 20.0 - Partly cloudy 5 - - - -
28/07:59am 14.3 NW 17 28 1008.2 - 20.0 - Partly cloudy 5 - - - -
28/07:57am 14.4 NW 17 28 1008.1 - 20.0 - Partly cloudy 6 - - - -
28/07:32am 13.8 NW 18 26 1008.0 - 20.0 - Partly cloudy 10 - - - -
28/07:30am 13.8 NW 17 26 1007.9 - 20.0 - Partly cloudy 10 - - - -
28/07:19am 13.6 NW 19 29 1008.0 - 20.0 - Partly cloudy 3 - - - -
28/07:02am 14.5 NW 17 24 1007.9 - 19.8 - Partly cloudy 5 - - - -
28/07:00am 14.6 NW 17 24 1007.9 - 19.8 - Partly cloudy 7 - - - -
28/06:32am 15.0 NW 18 28 1007.6 - 19.8 - Partly cloudy 7 - - - -
28/06:30am 15.0 NW 17 25 1007.6 - 19.8 - Partly cloudy 8 - - - -
28/06:00am 15.2 NW 16 24 1007.4 - 19.8 Recent precip. Cloudy 10 - - - -
28/05:30am 14.9 NW 19 25 1007.4 - 19.8 - Partly cloudy 10 - - - -
28/05:00am 14.6 NW 17 26 1007.2 - 19.6 - Partly cloudy 10 - - - -
28/04:42am 15.3 NW 18 29 1007.2 - 19.6 - Partly cloudy 10 - - - -
28/04:30am 15.2 NW 16 25 1007.1 - 19.6 - Partly cloudy 10 - - - -
28/04:00am 15.1 NW 18 25 1007.1 - 19.6 - Partly cloudy 10 - - - -
28/03:30am 15.3 NW 16 26 1007.0 - 19.6 - Partly cloudy 10 - - - -
28/03:00am 15.1 NW 18 26 1006.8 - 19.6 - Mostly cloudy 10 - - - -
28/02:30am 15.4 NW 18 25 1006.9 - 19.6 - Partly cloudy 10 - - - -
28/02:00am 15.2 NW 17 23 1007.1 - 19.6 - Partly cloudy 10 - - - -
28/01:39am 15.2 NW 18 28 1007.1 - 19.6 - Partly cloudy 10 - - - -
28/01:30am 15.4 NW 19 27 1007.0 - 19.6 - Partly cloudy 9 - - - -
28/01:00am 14.9 NW 15 23 1007.1 - 19.6 - Partly cloudy 8 - - - -
28/12:30am 15.2 NW 18 25 1007.3 - 19.6 - Partly cloudy 9 - - - -
28/12:00am 15.2 NW 16 22 1007.3 - 19.6 - Mostly clear 9 - - - -
 
Date/Time
EDT
Temp
°C
Wind Pressure Rain since
9am
mm
Weather Cloud Vis
km
Sea
Height
m
Swell
Dir  Spd
kts
Gust
kts
hPa Trend Height
m
Period
s
Dir
27/11:30pm 15.0 NW 17 22 1007.3 - 19.6 - Partly cloudy 9 - - - -
27/11:00pm 15.3 NW 19 26 1007.4 - 19.6 - Partly cloudy 8 - - - -
27/10:30pm 15.0 NW 16 22 1007.2 - 19.6 - Partly cloudy 8 - - - -
27/10:00pm 15.6 WNW 20 27 1007.4 - 19.6 - Partly cloudy 9 - - - -
27/09:35pm 15.4 WNW 21 31 1006.8 - 19.6 - Partly cloudy 9 - - - -
27/09:30pm 15.2 WNW 23 30 1006.7 - 19.6 - Partly cloudy 9 - - - -
27/09:00pm 14.6 WNW 20 27 1006.2 - 19.6 - Cloudy 6 - - - -
27/08:48pm 15.5 NW 18 30 1005.8 - 19.6 - Partly cloudy 8 - - - -
27/08:30pm 15.4 NW 20 29 1005.6 - 19.6 - Partly cloudy 9 - - - -
27/08:00pm 15.1 WNW 22 29 1005.2 - 19.6 - Partly cloudy 9 - - - -
27/07:30pm 15.2 NW 22 32 1004.5 - 19.6 - Partly cloudy 8 - - - -
27/07:24pm 15.1 NW 19 32 1004.3 - 19.6 - Partly cloudy 8 - - - -
27/07:21pm 15.1 WNW 19 24 1004.2 - 19.6 - Partly cloudy 9 - - - -
27/07:01pm 14.7 WNW 17 27 1004.1 - 19.2 - Partly cloudy 4 - - - -
27/07:00pm 15.1 WNW 17 25 1004.0 - 18.0 - Partly cloudy 6 - - - -
27/06:33pm 14.7 NW 21 31 1003.4 - 17.4 - Partly cloudy 9 - - - -
27/06:32pm 14.7 NW 21 29 1003.4 - 17.4 - Partly cloudy 9 - - - -
27/06:30pm 14.6 NW 20 29 1003.4 - 17.2 - Partly cloudy 8 - - - -
27/06:09pm 15.2 NW 20 31 1003.3 - 17.0 - Partly cloudy 3 - - - -
27/06:07pm 15.8 NW 19 26 1003.2 - 16.0 - Partly cloudy 5 - - - -
27/06:00pm 16.3 NW 18 27 1002.7 - 15.4 - Cloudy 10 - - - -
27/05:31pm 16.9 NW 19 29 1002.8 - 15.4 - Partly cloudy 10 - - - -
27/05:30pm 17.0 NW 20 29 1002.7 - 15.4 - Partly cloudy 10 - - - -
27/05:02pm 16.8 NW 20 30 1002.9 - 15.4 - Partly cloudy 10 - - - -
27/05:00pm 16.6 NW 21 30 1002.9 - 15.4 - Partly cloudy 10 - - - -
27/04:30pm 16.4 NW 20 29 1002.9 - 15.4 - Partly cloudy 10 - - - -
27/04:21pm 16.0 NNW 16 26 1003.0 - 15.4 - Partly cloudy 10 - - - -
27/04:18pm 16.2 NNW 15 22 1003.0 - 15.4 - Partly cloudy 10 - - - -
27/04:00pm 14.3 N 9 15 1002.9 - 15.4 - Partly cloudy 10 - - - -
27/03:30pm 15.0 NNW 15 24 1003.4 - 15.2 - Partly cloudy 10 - - - -
27/03:11pm 13.6 NNW 17 27 1003.5 - 15.2 - Partly cloudy 10 - - - -
27/03:07pm 13.5 NNW 16 22 1002.7 - 15.2 - Partly cloudy 10 - - - -
27/03:00pm 13.6 NNW 15 22 1002.1 - 15.2 Rain Cloudy 6 - - - -
27/02:31pm 14.3 NW 24 34 1002.7 - 14.0 - Partly cloudy 5 - - - -
27/02:30pm 14.2 NW 25 34 1002.7 - 14.0 - Partly cloudy 5 - - - -
27/02:00pm 15.7 NW 25 36 1002.1 - 12.4 - Partly cloudy 5 - - - -
27/01:30pm 16.3 NNW 23 34 1001.0 - 10.4 - Partly cloudy 5 - - - -
27/01:11pm 16.8 NW 21 31 1001.3 - 9.2 - Partly cloudy 5 - - - -
27/01:00pm 16.8 NW 22 31 1000.8 - 8.6 - Partly cloudy 3 - - - -
27/12:57pm 16.8 WNW 23 35 1000.6 - 8.2 - Partly cloudy 3 - - - -
27/12:39pm 18.3 NW 25 46 1000.1 - 4.8 - Partly cloudy 2 - - - -
27/12:38pm 19.3 NNW 23 34 1000.1 - 3.8 - Partly cloudy 2 - - - -
27/12:30pm 20.2 NNW 17 27 998.7 - 1.6 - Partly cloudy 6 - - - -
27/12:22pm 20.6 N 19 32 997.7 - 1.2 - Partly cloudy 5 - - - -
27/12:00pm 22.4 N 20 30 997.5 - 0.2 - Cloudy 10 - - - -
27/11:37am 23.1 N 16 26 997.2 - 0.2 - Partly cloudy 10 - - - -
27/11:30am 23.1 N 16 25 997.1 - 0.2 - Partly cloudy 10 - - - -
27/11:00am 22.6 N 19 31 997.6 - 0.2 - Cloudy 10 - - - -
27/10:30am 21.9 NNE 15 25 997.4 - 0.2 - Partly cloudy 10 - - - -
27/10:00am 24.5 N 18 33 998.5 - 0.0 - Partly cloudy 10 - - - -
27/09:30am 23.8 NNE 18 28 997.3 - 0.0 - Partly cloudy 10 - - - -
27/09:05am 23.0 NNE 17 27 997.8 - 0.0 - - 10 - - - -
27/09:00am 22.8 NNE 16 24 998.2 - 0.0 - Mostly clear 10 - - - -
27/08:43am 22.6 NNE 16 27 998.7 - 0.0 - Partly cloudy 10 - - - -
27/08:30am 21.7 NNE 14 21 999.3 - 0.0 - Partly cloudy 10 - - - -
27/08:01am 22.1 NNE 16 26 999.8 - 0.0 - Partly cloudy 10 - - - -
27/08:00am 21.9 NNE 16 25 999.9 - 0.0 - - 10 - - - -
27/07:32am 21.8 N 15 26 1000.4 - 0.0 - - 10 - - - -
27/07:30am 21.7 N 14 24 1000.4 - 0.0 - - 10 - - - -
27/07:00am 21.5 NNE 15 27 1000.6 - 0.0 - - 10 - - - -
27/06:30am 21.2 NNE 15 28 1001.3 - 0.0 - - 10 - - - -
27/06:00am 21.0 NNE 15 25 1001.4 - 0.0 - - 10 - - - -
27/05:30am 20.9 NNE 15 26 1002.1 - 0.0 - - 10 - - - -
27/05:00am 20.8 NNE 17 27 1002.8 - 0.0 - - 10 - - - -
27/04:32am 20.5 NNE 15 25 1003.1 - 0.0 - - 10 - - - -
27/04:30am 20.5 NNE 14 25 1003.1 - 0.0 - - 10 - - - -
27/04:02am 20.6 NNE 16 26 1003.8 - 0.0 - - 10 - - - -
27/04:00am 20.5 NNE 17 26 1003.7 - 0.0 - - 10 - - - -
27/03:39am 20.3 NNE 16 28 1003.9 - 0.0 - - 10 - - - -
27/03:30am 20.2 NNE 15 24 1004.2 - 0.0 - - 10 - - - -
27/03:17am 20.2 NNE 15 27 1004.5 - 0.0 - - 10 - - - -
27/03:00am 19.7 NNE 13 23 1005.2 - 0.0 - - 10 - - - -
27/02:30am 18.3 NNE 12 24 1005.8 - 0.0 - - 10 - - - -
27/02:00am 16.4 NE 9 16 1006.7 - 0.0 - - 10 - - - -
27/01:30am 14.1 ENE 4 7 1007.5 - 0.0 - - 10 - - - -
27/01:00am 12.5 NE 4 5 1008.3 - 0.0 - - 10 - - - -
27/12:30am 12.9 N 5 8 1009.0 - 0.0 - - 10 - - - -
27/12:03am 12.6 NW 5 5 1009.3 - 0.0 - - 10 - - - -
27/12:00am 12.5 NW 4 5 1009.3 - 0.0 - - 9 - - - -
 
Date/Time
EDT
Temp
°C
Wind Pressure Rain since
9am
mm
Weather Cloud Vis
km
Sea
Height
m
Swell
Dir  Spd
kts
Gust
kts
hPa Trend Height
m
Period
s
Dir
26/11:41pm 13.2 NNE 1 3 1009.4 - 0.0 - - 5 - - - -
26/11:30pm 14.3 NE 4 5 1009.6 - 0.0 - - 10 - - - -
26/11:12pm 13.9 NE 4 5 1010.0 - 0.0 - - 10 - - - -
26/11:00pm 13.8 ENE 4 5 1010.2 - 0.0 - - 3 - - - -
26/10:47pm 14.1 ENE 4 5 1010.6 - 0.0 - - 4 - - - -
26/10:30pm 14.8 NNE 5 5 1010.8 - 0.0 - - 10 - - - -
26/10:00pm 14.2 NNE 3 4 1011.2 - 0.0 - - 10 - - - -
26/09:30pm 14.7 NNE 3 3 1011.4 - 0.0 - - 10 - - - -
26/09:00pm 16.1 NNE 4 5 1011.5 - 0.0 - - 10 - - - -
26/08:30pm 16.3 NNE 3 4 1011.7 - 0.0 - - 7 - - - -
26/08:29pm 16.3 NNE 3 4 1011.7 - 0.0 - - 7 - - - -
26/08:19pm 16.2 NNE 3 5 1011.7 - 0.0 - - 5 - - - -
26/08:00pm 16.3 NNW 5 5 1012.0 - 0.0 - - 8 - - - -
26/07:30pm 17.1 NNW 4 5 1011.9 - 0.0 - - 10 - - - -
26/07:00pm 18.0 NW 5 6 1011.9 - 0.0 - - 10 - - - -
26/06:30pm 19.0 NW 5 7 1012.1 - 0.0 - - 10 - - - -
26/06:00pm 19.9 WNW 7 8 1012.4 - 0.0 - - 10 - - - -
26/05:30pm 20.1 W 7 9 1012.4 - 0.0 - - 10 - - - -
26/05:00pm 20.9 W 7 9 1012.5 - 0.0 - - 10 - - - -
26/04:30pm 21.4 W 7 9 1012.4 - 0.0 - - 10 - - - -
26/04:00pm 22.0 W 7 9 1012.7 - 0.0 - Partly cloudy 10 - - - -
26/03:30pm 21.2 WNW 8 9 1013.1 - 0.0 - - 10 - - - -
26/03:00pm 21.7 WSW 6 8 1013.4 - 0.0 - Mostly clear 10 - - - -
26/02:30pm 21.6 WNW 7 9 1013.6 - 0.0 - Partly cloudy 10 - - - -
26/02:00pm 21.1 W 8 11 1014.1 - 0.0 - Partly cloudy 10 - - - -
26/01:30pm 20.7 W 6 8 1014.3 - 0.0 - Cloudy 10 - - - -
26/01:00pm 21.1 WNW 6 8 1014.7 - 0.0 - Cloudy 10 - - - -
26/12:30pm 19.9 W 7 9 1015.1 - 0.0 - Cloudy 10 - - - -
26/12:00pm 19.5 SSW 4 6 1015.5 - 0.0 - Cloudy 10 - - - -
26/11:30am 19.4 SW 4 5 1015.7 - 0.0 - Partly cloudy 9 - - - -
26/11:00am 19.0 CALM 0 0 1015.6 - 0.0 - Cloudy 10 - - - -
26/10:30am 18.3 ENE 3 4 1015.5 - 0.0 - Partly cloudy 10 - - - -
26/10:00am 18.1 ESE 4 5 1015.4 - 0.0 - Partly cloudy 10 - - - -
26/09:30am 17.5 ESE 4 5 1015.2 - 0.0 - Partly cloudy 10 - - - -
26/09:00am 16.5 E 3 4 1015.2 - 0.0 - Mostly cloudy 10 - - - -
26/08:30am 16.0 CALM 0 0 1014.9 - 0.0 - Partly cloudy 10 - - - -
26/08:00am 14.6 NNE 1 4 1014.7 - 0.0 - Partly cloudy 10 - - - -
26/07:30am 14.9 N 5 7 1014.3 - 0.0 - - 10 - - - -
26/07:00am 15.2 NNE 5 6 1014.1 - 0.0 - - 10 - - - -
26/06:30am 15.8 NE 4 5 1013.7 - 0.0 - Partly cloudy 10 - - - -
26/06:00am 15.8 CALM 0 0 1013.7 - 0.0 - Cloudy 10 - - - -
26/05:32am 15.6 E 3 4 1013.5 - 0.0 - Partly cloudy 10 - - - -
26/05:30am 15.6 E 3 4 1013.4 - 0.0 - Partly cloudy 10 - - - -
26/05:19am 15.7 ENE 3 4 1013.3 - 0.0 - Partly cloudy 10 - - - -
26/05:00am 15.9 ENE 3 4 1013.3 - 0.0 - Cloudy 10 - - - -
26/04:30am 16.0 NNE 3 5 1013.3 - 0.0 - Cloudy 10 - - - -
26/04:00am 15.8 CALM 0 0 1013.5 - 0.0 - Partly cloudy 10 - - - -
26/03:30am 15.7 CALM 0 0 1013.7 - 0.0 - Cloudy 10 - - - -
26/03:00am 16.2 SW 3 3 1013.7 - 0.0 - Cloudy 10 - - - -
26/02:30am 16.3 SW 1 4 1014.1 - 0.0 - Cloudy 10 - - - -
26/02:00am 16.0 SW 2 4 1014.0 - 0.0 - Partly cloudy 10 - - - -
26/01:30am 16.5 NE 3 5 1013.8 - 0.0 - Partly cloudy 10 - - - -
26/01:00am 16.6 NE 3 5 1013.9 - 0.0 - Partly cloudy 10 - - - -
26/12:30am 16.6 NE 3 4 1013.9 - 0.0 - Partly cloudy 10 - - - -
26/12:00am 16.6 E 2 3 1013.9 - 0.0 - Cloudy 10 - - - -
 
Date/Time
EDT
Temp
°C
Wind Pressure Rain since
9am
mm
Weather Cloud Vis
km
Sea
Height
m
Swell
Dir  Spd
kts
Gust
kts
hPa Trend Height
m
Period
s
Dir
25/11:30pm 16.5 CALM 0 0 1013.9 - 0.0 - Partly cloudy 10 - - - -
25/11:00pm 16.3 CALM 0 0 1014.0 - 0.0 - Cloudy 10 - - - -
25/10:30pm 16.2 CALM 0 0 1013.8 - 0.0 - Partly cloudy 10 - - - -
25/10:00pm 16.4 CALM 0 0 1013.4 - 0.0 - Partly cloudy 10 - - - -
25/09:30pm 16.2 CALM 0 0 1013.3 - 0.0 - Cloudy 10 - - - -
25/09:00pm 16.1 CALM 0 0 1012.9 - 0.0 - Mostly cloudy 10 - - - -
25/08:30pm 16.1 CALM 0 0 1012.6 - 0.0 - Partly cloudy 10 - - - -
25/08:00pm 16.4 CALM 0 3 1012.3 - 0.0 - Partly cloudy 10 - - - -
25/07:30pm 17.2 ENE 3 4 1012.2 - 0.0 - Partly cloudy 10 - - - -
25/07:00pm 17.6 NE 3 4 1012.1 - 0.0 - Cloudy 10 - - - -
25/06:30pm 17.7 NE 3 4 1012.1 - 0.0 - Partly cloudy 10 - - - -
25/06:00pm 17.9 NE 4 5 1011.8 - 0.0 - Cloudy 10 - - - -
25/05:30pm 17.7 ENE 6 8 1011.7 - 0.0 - Partly cloudy 10 - - - -
25/05:14pm 17.5 ENE 7 9 1011.6 - 0.0 - Partly cloudy 10 - - - -
25/05:00pm 17.6 NNE 4 6 1011.7 - 0.0 - Partly cloudy 5 - - - -
25/04:44pm 18.0 NNW 5 6 1011.9 - 0.0 - Partly cloudy 5 - - - -
25/04:30pm 18.3 NNE 5 7 1011.7 - 0.0 - Cloudy 10 - - - -
25/04:00pm 19.1 NNE 7 10 1011.7 - 0.0 - Cloudy 10 - - - -
25/03:30pm 19.0 NNE 5 7 1011.8 - 0.0 - Partly cloudy 10 - - - -

Other Formats:

Comma delimited format used in spreadsheet applications
http://www.bom.gov.au/fwo/IDT60701/IDT60701.94956.axf

JavaScript Object Notation format (JSON) in row-major order
http://www.bom.gov.au/fwo/IDT60701/IDT60701.94956.json